Weather Data

Pearl Creek Farm: 8878 N Farm Road 75, Walnut Grove MO 65770

<== Previous Day (Friday 25 Jan 2008) | Next Day (Sunday 27 Jan 2008) ==>

Summary Precipitation Data For Saturday 26 January 2008

ElementValueUnits
Precipitation0"
Notes(none)
SourceSpringfield-Branson National Airport (SGF)

Summary Temperature Data For Saturday 26 January 2008

ElementValueUnits
High Temperature50 oF
Low Temperature24 oF
Average Temperature36 oF
High Humidity92 %
Low Humidity43 %
Average Humidity76 %
SourceSpringfield-Branson National Airport (SGF)

Detail Temperature Data For Saturday 26 January 2008

Date / TimeTemp (F)RH (%)Dew Pt (F)Report Date / TimeSource
2008-01-26 03:52:00 31 89 28.0 2017-12-29 19:14:24.89625 Springfield-Branson National Airport (SGF)
2008-01-26 04:52:00 31 89 28.0 2017-12-29 19:14:24.89625 Springfield-Branson National Airport (SGF)
2008-01-26 05:52:00 31 92 29.0 2017-12-29 19:14:24.89625 Springfield-Branson National Airport (SGF)
2008-01-26 06:52:00 31 92 29.0 2017-12-29 19:14:24.89625 Springfield-Branson National Airport (SGF)
2008-01-26 07:52:00 31 92 29.0 2017-12-29 19:14:24.89625 Springfield-Branson National Airport (SGF)
2008-01-26 08:52:00 32 88 29.0 2017-12-29 19:14:24.89625 Springfield-Branson National Airport (SGF)
2008-01-26 09:52:00 33 89 30.0 2017-12-29 19:14:24.89625 Springfield-Branson National Airport (SGF)
2008-01-26 23:52:00 24 91 22.0 2017-12-29 19:14:24.89625 Springfield-Branson National Airport (SGF)
2008-01-26 20:52:00 33 82 28.0 2017-12-29 19:14:24.89625 Springfield-Branson National Airport (SGF)
2008-01-26 21:52:00 30 92 28.0 2017-12-29 19:14:24.89625 Springfield-Branson National Airport (SGF)
2008-01-26 22:52:00 27 92 25.0 2017-12-29 19:14:24.89625 Springfield-Branson National Airport (SGF)
2008-01-26 00:52:00 32 82 27.0 2017-12-29 19:14:24.89625 Springfield-Branson National Airport (SGF)
2008-01-26 01:52:00 31 89 28.0 2017-12-29 19:14:24.89625 Springfield-Branson National Airport (SGF)
2008-01-26 02:52:00 31 89 28.0 2017-12-29 19:14:24.89625 Springfield-Branson National Airport (SGF)
2008-01-26 10:52:00 37 76 30.0 2017-12-29 19:14:24.89625 Springfield-Branson National Airport (SGF)
2008-01-26 11:52:00 42 62 30.0 2017-12-29 19:14:24.89625 Springfield-Branson National Airport (SGF)
2008-01-26 12:52:00 46 54 30.0 2017-12-29 19:14:24.89625 Springfield-Branson National Airport (SGF)
2008-01-26 13:52:00 49 44 28.0 2017-12-29 19:14:24.89625 Springfield-Branson National Airport (SGF)
2008-01-26 14:52:00 50 43 28.0 2017-12-29 19:14:24.89625 Springfield-Branson National Airport (SGF)
2008-01-26 15:52:00 49 43 27.0 2017-12-29 19:14:24.89625 Springfield-Branson National Airport (SGF)
2008-01-26 16:52:00 45 52 28.0 2017-12-29 19:14:24.89625 Springfield-Branson National Airport (SGF)
2008-01-26 17:52:00 39 62 27.0 2017-12-29 19:14:24.89625 Springfield-Branson National Airport (SGF)
2008-01-26 18:52:00 37 67 27.0 2017-12-29 19:14:24.89625 Springfield-Branson National Airport (SGF)
2008-01-26 19:52:00 33 78 27.0 2017-12-29 19:14:24.89625 Springfield-Branson National Airport (SGF)

A total of 24 rows are displayed.